createdAt,value
2022-09-15T00:02:05.476Z,624.00
2022-09-15T00:07:04.616Z,618.00
2022-09-15T00:12:03.929Z,624.00
2022-09-15T00:17:03.368Z,612.00
2022-09-15T00:22:02.483Z,623.00
2022-09-15T00:27:01.778Z,600.00
2022-09-15T00:32:01.073Z,589.00
2022-09-15T00:37:00.372Z,574.00
2022-09-15T00:42:00.671Z,582.00
2022-09-15T00:47:18.161Z,597.00
2022-09-15T00:51:59.130Z,611.00
2022-09-15T00:56:57.410Z,570.00
2022-09-15T01:01:57.781Z,570.00
2022-09-15T01:06:55.889Z,592.00
2022-09-15T01:11:56.174Z,563.00
2022-09-15T01:17:17.855Z,579.00
2022-09-15T01:21:58.135Z,566.00
2022-09-15T01:26:52.904Z,565.00
2022-09-15T01:31:53.232Z,561.00
2022-09-15T01:36:51.330Z,565.00
2022-09-15T01:41:50.642Z,559.00
2022-09-15T01:46:50.973Z,562.00
2022-09-15T01:51:49.286Z,575.00
2022-09-15T01:56:48.599Z,572.00
2022-09-15T02:01:48.949Z,562.00
2022-09-15T02:06:47.016Z,565.00
2022-09-15T02:11:47.328Z,578.00
2022-09-15T02:16:47.670Z,584.00
2022-09-15T02:21:44.775Z,585.00
2022-09-15T02:26:44.062Z,589.00
2022-09-15T02:31:42.424Z,581.00
2022-09-15T02:36:42.548Z,574.00
2022-09-15T02:41:43.817Z,572.00
2022-09-15T02:46:42.108Z,565.00
2022-09-15T02:51:40.388Z,583.00
2022-09-15T02:56:39.689Z,579.00
2022-09-15T03:01:39.017Z,572.00
2022-09-15T03:06:39.131Z,578.00
2022-09-15T03:11:37.402Z,570.00
2022-09-15T03:16:37.742Z,566.00
2022-09-15T03:21:36.854Z,561.00
2022-09-15T03:26:36.131Z,559.00
2022-09-15T03:31:34.501Z,553.00
2022-09-15T03:36:35.616Z,551.00
2022-09-15T03:41:32.901Z,554.00
2022-09-15T03:46:32.210Z,553.00
2022-09-15T03:51:31.499Z,558.00
2022-09-15T03:56:30.806Z,560.00
2022-09-15T04:01:30.253Z,559.00
2022-09-15T04:06:29.253Z,564.00
2022-09-15T04:11:29.553Z,560.00
2022-09-15T04:16:28.896Z,564.00
2022-09-15T04:21:27.021Z,563.00
2022-09-15T04:26:26.323Z,560.00
2022-09-15T04:31:26.728Z,557.00
2022-09-15T04:36:25.815Z,562.00
2022-09-15T04:41:24.121Z,564.00
2022-09-15T04:46:24.465Z,560.00
2022-09-15T04:51:23.784Z,564.00
2022-09-15T04:56:22.113Z,559.00
2022-09-15T05:01:21.491Z,558.00
2022-09-15T05:06:20.611Z,558.00
2022-09-15T05:11:19.942Z,557.00
2022-09-15T05:16:20.349Z,554.00
2022-09-15T05:21:19.459Z,556.00
2022-09-15T05:26:18.804Z,556.00
2022-09-15T05:31:16.987Z,558.00
2022-09-15T05:36:16.140Z,553.00
2022-09-15T05:41:15.466Z,554.00
2022-09-15T05:46:16.711Z,554.00
2022-09-15T05:51:14.817Z,546.00
2022-09-15T05:56:13.153Z,553.00
2022-09-15T06:01:12.305Z,548.00
2022-09-15T06:06:11.420Z,557.00
2022-09-15T06:11:11.713Z,552.00
2022-09-15T06:16:09.884Z,555.00
2022-09-15T06:21:08.992Z,549.00
2022-09-15T06:26:10.300Z,548.00
2022-09-15T06:31:07.613Z,549.00
2022-09-15T06:36:06.894Z,549.00
2022-09-15T06:41:05.189Z,545.00
2022-09-15T06:46:05.520Z,543.00
2022-09-15T06:51:06.679Z,551.00
2022-09-15T06:56:04.999Z,553.00
2022-09-15T07:01:04.264Z,560.00
2022-09-15T07:06:02.553Z,553.00
2022-09-15T07:11:02.859Z,553.00
2022-09-15T07:16:01.173Z,546.00
2022-09-15T07:21:02.323Z,555.00
2022-09-15T07:25:59.617Z,549.00
2022-09-15T07:30:58.931Z,547.00
2022-09-15T07:36:00.226Z,543.00
2022-09-15T07:40:58.518Z,554.00
2022-09-15T07:45:55.874Z,544.00
2022-09-15T07:50:58.040Z,537.00
2022-09-15T07:55:55.322Z,537.00
2022-09-15T08:00:54.768Z,544.00
2022-09-15T08:05:53.914Z,538.00
2022-09-15T08:10:53.421Z,547.00
2022-09-15T08:15:51.641Z,543.00
2022-09-15T08:20:50.874Z,543.00
2022-09-15T08:25:51.053Z,552.00
2022-09-15T08:30:50.411Z,550.00
2022-09-15T08:35:49.508Z,548.00
2022-09-15T08:40:49.925Z,556.00
2022-09-15T08:45:48.024Z,554.00
2022-09-15T08:50:48.379Z,549.00
2022-09-15T08:55:46.506Z,543.00
2022-09-15T09:00:45.947Z,548.00
2022-09-15T09:05:45.152Z,544.00
2022-09-15T09:10:44.324Z,544.00
2022-09-15T09:15:43.765Z,541.00
2022-09-15T09:20:43.603Z,543.00
2022-09-15T09:25:42.134Z,543.00
2022-09-15T09:30:41.303Z,541.00
2022-09-15T09:35:40.401Z,540.00
2022-09-15T09:40:39.628Z,553.00
2022-09-15T09:45:38.907Z,557.00
2022-09-15T09:50:38.142Z,549.00
2022-09-15T09:55:37.275Z,548.00
2022-09-15T10:00:36.606Z,552.00
2022-09-15T10:05:36.003Z,548.00
2022-09-15T10:10:35.205Z,549.00
2022-09-15T10:15:34.356Z,548.00
2022-09-15T10:20:34.504Z,531.00
2022-09-15T10:25:49.390Z,546.00
2022-09-15T10:30:31.818Z,552.00
2022-09-15T10:35:31.032Z,543.00
2022-09-15T10:40:30.281Z,542.00
2022-09-15T10:45:29.452Z,547.00
2022-09-15T10:50:28.529Z,552.00
2022-09-15T10:55:48.550Z,548.00
2022-09-15T11:00:27.054Z,557.00
2022-09-15T11:05:26.173Z,542.00
2022-09-15T11:10:26.480Z,548.00
2022-09-15T11:15:24.850Z,541.00
2022-09-15T11:20:23.997Z,554.00
2022-09-15T11:25:23.092Z,562.00
2022-09-15T11:30:22.424Z,551.00
2022-09-15T11:35:21.773Z,565.00
2022-09-15T11:40:22.086Z,568.00
2022-09-15T11:45:20.303Z,548.00
2022-09-15T11:50:20.385Z,548.00
2022-09-15T11:55:18.694Z,540.00
2022-09-15T12:00:18.019Z,539.00
2022-09-15T12:05:18.449Z,539.00
2022-09-15T12:10:16.683Z,530.00
2022-09-15T12:15:15.161Z,533.00
2022-09-15T12:20:16.319Z,540.00
2022-09-15T12:25:14.497Z,548.00
2022-09-15T12:30:12.779Z,536.00
2022-09-15T12:35:13.718Z,537.00
2022-09-15T12:40:12.125Z,537.00
2022-09-15T12:45:11.315Z,540.00
2022-09-15T12:50:10.541Z,539.00
2022-09-15T12:55:09.652Z,539.00
2022-09-15T13:00:09.009Z,542.00
2022-09-15T13:05:08.196Z,539.00
2022-09-15T13:10:07.366Z,536.00
2022-09-15T13:15:08.651Z,530.00
2022-09-15T13:20:05.811Z,534.00
2022-09-15T13:25:05.001Z,531.00
2022-09-15T13:30:05.138Z,534.00
2022-09-15T13:35:13.455Z,543.00
2022-09-15T13:40:01.867Z,536.00
2022-09-15T13:45:00.840Z,525.00
2022-09-15T13:50:02.197Z,524.00
2022-09-15T13:55:00.308Z,522.00
2022-09-15T13:59:59.689Z,523.00
2022-09-15T14:04:58.937Z,530.00
2022-09-15T14:09:58.091Z,532.00
2022-09-15T14:14:58.271Z,531.00
2022-09-15T14:19:57.429Z,528.00
2022-09-15T14:24:55.735Z,524.00
2022-09-15T14:29:55.906Z,529.00
2022-09-15T14:34:53.062Z,531.00
2022-09-15T14:39:53.278Z,530.00
2022-09-15T14:49:51.699Z,532.00
2022-09-15T14:54:51.933Z,530.00
2022-09-15T14:59:49.180Z,529.00
2022-09-15T15:04:49.382Z,534.00
2022-09-15T15:09:48.631Z,534.00
2022-09-15T15:14:48.811Z,531.00
2022-09-15T15:19:46.996Z,534.00
2022-09-15T15:24:47.132Z,536.00
2022-09-15T15:29:44.494Z,538.00
2022-09-15T15:34:43.608Z,531.00
2022-09-15T15:39:43.904Z,535.00
2022-09-15T15:44:44.266Z,528.00
2022-09-15T15:50:02.274Z,532.00
2022-09-15T15:54:41.594Z,528.00
2022-09-15T15:59:39.794Z,542.00
2022-09-15T16:04:42.987Z,526.00
2022-09-15T16:09:40.258Z,532.00
2022-09-15T16:14:37.400Z,541.00
2022-09-15T16:19:37.624Z,539.00
2022-09-15T16:24:37.833Z,525.00
2022-09-15T16:29:35.016Z,537.00
2022-09-15T16:34:37.222Z,535.00
2022-09-15T16:39:35.344Z,533.00
2022-09-15T16:44:33.762Z,539.00
2022-09-15T16:49:32.979Z,537.00
2022-09-15T16:54:32.176Z,534.00
2022-09-15T16:59:32.323Z,536.00
2022-09-15T17:04:30.452Z,528.00
2022-09-15T17:09:29.943Z,529.00
2022-09-15T17:14:30.035Z,526.00
2022-09-15T17:19:28.335Z,533.00
2022-09-15T17:24:28.468Z,537.00
2022-09-15T17:29:26.821Z,537.00
2022-09-15T17:34:26.234Z,540.00
2022-09-15T17:39:25.378Z,535.00
2022-09-15T17:44:24.766Z,537.00
2022-09-15T17:49:23.957Z,540.00
2022-09-15T17:54:23.242Z,541.00
2022-09-15T17:59:22.499Z,538.00
2022-09-15T18:04:21.805Z,531.00
2022-09-15T18:09:22.032Z,533.00
2022-09-15T18:14:20.380Z,532.00
2022-09-15T18:19:19.672Z,568.00
2022-09-15T18:24:20.881Z,558.00
2022-09-15T18:29:18.009Z,559.00
2022-09-15T18:34:18.354Z,560.00
2022-09-15T18:39:18.494Z,561.00
2022-09-15T18:44:15.643Z,563.00
2022-09-15T18:49:14.681Z,559.00
2022-09-15T18:54:14.990Z,558.00
2022-09-15T18:59:16.658Z,560.00
2022-09-15T19:04:14.635Z,565.00
2022-09-15T19:09:11.750Z,561.00
2022-09-15T19:14:10.715Z,577.00
2022-09-15T19:19:11.166Z,614.00
2022-09-15T19:24:09.448Z,627.00
2022-09-15T19:29:10.781Z,651.00
2022-09-15T19:34:09.963Z,651.00
2022-09-15T19:39:08.086Z,645.00
2022-09-15T19:44:09.460Z,663.00
2022-09-15T19:49:06.691Z,674.00
2022-09-15T19:54:06.864Z,685.00
2022-09-15T19:59:03.963Z,731.00
2022-09-15T22:33:38.517Z,790.00
2022-09-15T22:38:36.831Z,720.00
2022-09-15T22:43:37.145Z,728.00
2022-09-15T22:48:39.665Z,745.00
2022-09-15T22:53:35.551Z,720.00
2022-09-15T22:58:33.833Z,708.00
2022-09-15T23:03:33.129Z,703.00
2022-09-15T23:08:33.387Z,674.00
2022-09-15T23:13:31.720Z,658.00
2022-09-15T23:18:30.809Z,663.00
2022-09-15T23:23:30.078Z,652.00
2022-09-15T23:28:30.334Z,658.00
2022-09-15T23:33:29.574Z,669.00
2022-09-15T23:38:27.835Z,641.00
2022-09-15T23:43:27.096Z,631.00
2022-09-15T23:48:26.345Z,629.00
2022-09-15T23:53:26.694Z,625.00
2022-09-15T23:58:24.954Z,622.00
